sensor_id;sensor_type;location;lat;lon;timestamp;P1;durP1;ratioP1;P2;durP2;ratioP2
16813;SDS011;8524;57.650;11.926;2023-04-16T00:02:10;4.60;;;4.17;;
16813;SDS011;8524;57.650;11.926;2023-04-16T00:04:37;5.33;;;4.47;;
16813;SDS011;8524;57.650;11.926;2023-04-16T00:07:06;5.70;;;4.60;;
16813;SDS011;8524;57.650;11.926;2023-04-16T00:09:34;5.40;;;4.63;;
16813;SDS011;8524;57.650;11.926;2023-04-16T00:12:02;5.37;;;4.87;;
16813;SDS011;8524;57.650;11.926;2023-04-16T00:14:30;5.33;;;4.83;;
16813;SDS011;8524;57.650;11.926;2023-04-16T00:16:57;5.37;;;4.87;;
16813;SDS011;8524;57.650;11.926;2023-04-16T00:19:24;7.40;;;5.07;;
16813;SDS011;8524;57.650;11.926;2023-04-16T00:21:52;6.00;;;5.37;;
16813;SDS011;8524;57.650;11.926;2023-04-16T00:24:19;5.37;;;4.80;;
16813;SDS011;8524;57.650;11.926;2023-04-16T00:26:47;6.53;;;5.00;;
16813;SDS011;8524;57.650;11.926;2023-04-16T00:29:14;5.40;;;4.90;;
16813;SDS011;8524;57.650;11.926;2023-04-16T00:31:41;5.40;;;4.60;;
16813;SDS011;8524;57.650;11.926;2023-04-16T00:34:08;5.73;;;4.90;;
16813;SDS011;8524;57.650;11.926;2023-04-16T00:36:35;4.80;;;4.40;;
16813;SDS011;8524;57.650;11.926;2023-04-16T00:39:03;5.53;;;4.63;;
16813;SDS011;8524;57.650;11.926;2023-04-16T00:41:30;4.93;;;4.43;;
16813;SDS011;8524;57.650;11.926;2023-04-16T00:43:58;5.20;;;4.73;;
16813;SDS011;8524;57.650;11.926;2023-04-16T00:46:25;5.40;;;4.90;;
16813;SDS011;8524;57.650;11.926;2023-04-16T00:48:53;5.20;;;4.70;;
16813;SDS011;8524;57.650;11.926;2023-04-16T00:51:21;5.13;;;4.67;;
16813;SDS011;8524;57.650;11.926;2023-04-16T00:53:48;5.40;;;4.90;;
16813;SDS011;8524;57.650;11.926;2023-04-16T00:56:15;6.57;;;5.10;;
16813;SDS011;8524;57.650;11.926;2023-04-16T00:58:43;5.20;;;4.70;;
16813;SDS011;8524;57.650;11.926;2023-04-16T01:01:12;5.70;;;4.97;;
16813;SDS011;8524;57.650;11.926;2023-04-16T01:03:41;6.37;;;4.90;;
16813;SDS011;8524;57.650;11.926;2023-04-16T01:06:09;5.03;;;4.50;;
16813;SDS011;8524;57.650;11.926;2023-04-16T01:08:37;5.27;;;4.63;;
16813;SDS011;8524;57.650;11.926;2023-04-16T01:11:04;5.17;;;4.67;;
16813;SDS011;8524;57.650;11.926;2023-04-16T01:13:32;5.40;;;4.90;;
16813;SDS011;8524;57.650;11.926;2023-04-16T01:16:03;5.40;;;4.43;;
16813;SDS011;8524;57.650;11.926;2023-04-16T01:18:32;5.23;;;4.80;;
16813;SDS011;8524;57.650;11.926;2023-04-16T01:21:01;5.13;;;4.57;;
16813;SDS011;8524;57.650;11.926;2023-04-16T01:23:29;5.00;;;4.50;;
16813;SDS011;8524;57.650;11.926;2023-04-16T01:25:56;5.00;;;4.50;;
16813;SDS011;8524;57.650;11.926;2023-04-16T01:28:23;5.47;;;4.97;;
16813;SDS011;8524;57.650;11.926;2023-04-16T01:30:50;5.00;;;4.50;;
16813;SDS011;8524;57.650;11.926;2023-04-16T01:33:17;5.23;;;4.73;;
16813;SDS011;8524;57.650;11.926;2023-04-16T01:35:44;5.73;;;4.80;;
16813;SDS011;8524;57.650;11.926;2023-04-16T01:38:12;6.30;;;4.90;;
16813;SDS011;8524;57.650;11.926;2023-04-16T01:40:39;5.40;;;4.90;;
16813;SDS011;8524;57.650;11.926;2023-04-16T01:43:06;5.20;;;4.70;;
16813;SDS011;8524;57.650;11.926;2023-04-16T01:45:34;5.53;;;4.90;;
16813;SDS011;8524;57.650;11.926;2023-04-16T01:48:01;5.47;;;4.80;;
16813;SDS011;8524;57.650;11.926;2023-04-16T01:50:29;5.73;;;4.67;;
16813;SDS011;8524;57.650;11.926;2023-04-16T01:52:57;6.03;;;5.43;;
16813;SDS011;8524;57.650;11.926;2023-04-16T01:55:27;5.87;;;5.07;;
16813;SDS011;8524;57.650;11.926;2023-04-16T01:57:54;7.87;;;4.97;;
16813;SDS011;8524;57.650;11.926;2023-04-16T02:00:21;6.43;;;5.30;;
16813;SDS011;8524;57.650;11.926;2023-04-16T02:02:48;5.63;;;5.00;;
16813;SDS011;8524;57.650;11.926;2023-04-16T02:05:15;6.53;;;5.00;;
16813;SDS011;8524;57.650;11.926;2023-04-16T02:07:42;5.40;;;4.70;;
16813;SDS011;8524;57.650;11.926;2023-04-16T02:10:09;5.20;;;4.70;;
16813;SDS011;8524;57.650;11.926;2023-04-16T02:12:37;5.63;;;4.87;;
16813;SDS011;8524;57.650;11.926;2023-04-16T02:15:05;5.07;;;4.57;;
16813;SDS011;8524;57.650;11.926;2023-04-16T02:17:33;5.13;;;4.40;;
16813;SDS011;8524;57.650;11.926;2023-04-16T02:20:00;5.77;;;4.90;;
16813;SDS011;8524;57.650;11.926;2023-04-16T02:22:29;6.63;;;4.97;;
16813;SDS011;8524;57.650;11.926;2023-04-16T02:24:56;6.07;;;4.67;;
16813;SDS011;8524;57.650;11.926;2023-04-16T02:27:23;4.87;;;4.47;;
16813;SDS011;8524;57.650;11.926;2023-04-16T02:29:52;6.77;;;4.87;;
16813;SDS011;8524;57.650;11.926;2023-04-16T02:32:19;5.33;;;4.57;;
16813;SDS011;8524;57.650;11.926;2023-04-16T02:34:46;5.53;;;4.90;;
16813;SDS011;8524;57.650;11.926;2023-04-16T02:37:13;5.20;;;4.70;;
16813;SDS011;8524;57.650;11.926;2023-04-16T02:39:40;5.20;;;4.70;;
16813;SDS011;8524;57.650;11.926;2023-04-16T02:42:08;4.87;;;4.47;;
16813;SDS011;8524;57.650;11.926;2023-04-16T02:44:35;5.27;;;4.77;;
16813;SDS011;8524;57.650;11.926;2023-04-16T02:47:03;5.97;;;4.70;;
16813;SDS011;8524;57.650;11.926;2023-04-16T02:49:30;5.10;;;4.63;;
16813;SDS011;8524;57.650;11.926;2023-04-16T02:51:57;4.50;;;4.10;;
16813;SDS011;8524;57.650;11.926;2023-04-16T02:54:24;5.03;;;4.30;;
16813;SDS011;8524;57.650;11.926;2023-04-16T02:56:51;5.23;;;4.73;;
16813;SDS011;8524;57.650;11.926;2023-04-16T02:59:18;5.10;;;4.60;;
16813;SDS011;8524;57.650;11.926;2023-04-16T03:01:45;4.70;;;4.30;;
16813;SDS011;8524;57.650;11.926;2023-04-16T03:04:14;5.23;;;4.83;;
16813;SDS011;8524;57.650;11.926;2023-04-16T03:06:41;5.67;;;5.07;;
16813;SDS011;8524;57.650;11.926;2023-04-16T03:09:08;5.17;;;4.63;;
16813;SDS011;8524;57.650;11.926;2023-04-16T03:11:35;6.77;;;4.57;;
16813;SDS011;8524;57.650;11.926;2023-04-16T03:14:02;4.63;;;4.23;;
16813;SDS011;8524;57.650;11.926;2023-04-16T03:16:29;5.07;;;4.60;;
16813;SDS011;8524;57.650;11.926;2023-04-16T03:18:56;5.20;;;4.70;;
16813;SDS011;8524;57.650;11.926;2023-04-16T03:21:25;5.00;;;4.60;;
16813;SDS011;8524;57.650;11.926;2023-04-16T03:23:52;5.07;;;4.57;;
16813;SDS011;8524;57.650;11.926;2023-04-16T03:26:20;6.37;;;4.57;;
16813;SDS011;8524;57.650;11.926;2023-04-16T03:28:47;5.07;;;4.60;;
16813;SDS011;8524;57.650;11.926;2023-04-16T03:31:14;5.40;;;4.90;;
16813;SDS011;8524;57.650;11.926;2023-04-16T03:33:41;5.67;;;4.50;;
16813;SDS011;8524;57.650;11.926;2023-04-16T03:36:08;5.00;;;4.50;;
16813;SDS011;8524;57.650;11.926;2023-04-16T03:38:37;6.10;;;5.00;;
16813;SDS011;8524;57.650;11.926;2023-04-16T03:41:04;5.97;;;4.37;;
16813;SDS011;8524;57.650;11.926;2023-04-16T03:43:31;5.10;;;4.57;;
16813;SDS011;8524;57.650;11.926;2023-04-16T03:45:58;5.70;;;4.33;;
16813;SDS011;8524;57.650;11.926;2023-04-16T03:48:25;5.97;;;4.77;;
16813;SDS011;8524;57.650;11.926;2023-04-16T03:50:52;5.20;;;4.70;;
16813;SDS011;8524;57.650;11.926;2023-04-16T03:53:19;5.87;;;4.80;;
16813;SDS011;8524;57.650;11.926;2023-04-16T03:55:49;6.43;;;4.80;;
16813;SDS011;8524;57.650;11.926;2023-04-16T03:58:17;5.77;;;4.53;;
16813;SDS011;8524;57.650;11.926;2023-04-16T04:00:47;4.63;;;4.23;;
16813;SDS011;8524;57.650;11.926;2023-04-16T04:03:15;6.27;;;4.70;;
16813;SDS011;8524;57.650;11.926;2023-04-16T04:05:43;4.83;;;4.43;;
16813;SDS011;8524;57.650;11.926;2023-04-16T04:08:10;5.43;;;4.67;;
16813;SDS011;8524;57.650;11.926;2023-04-16T04:10:37;5.03;;;4.50;;
16813;SDS011;8524;57.650;11.926;2023-04-16T04:13:05;4.97;;;4.43;;
16813;SDS011;8524;57.650;11.926;2023-04-16T04:15:32;4.93;;;4.27;;
16813;SDS011;8524;57.650;11.926;2023-04-16T04:17:59;5.27;;;4.60;;
16813;SDS011;8524;57.650;11.926;2023-04-16T04:20:27;6.13;;;4.53;;
16813;SDS011;8524;57.650;11.926;2023-04-16T04:22:54;5.63;;;4.50;;
16813;SDS011;8524;57.650;11.926;2023-04-16T04:25:21;5.07;;;4.57;;
16813;SDS011;8524;57.650;11.926;2023-04-16T04:27:48;5.83;;;4.50;;
16813;SDS011;8524;57.650;11.926;2023-04-16T04:30:16;5.93;;;4.50;;
16813;SDS011;8524;57.650;11.926;2023-04-16T04:32:43;5.83;;;4.70;;
16813;SDS011;8524;57.650;11.926;2023-04-16T04:35:10;4.97;;;4.57;;
16813;SDS011;8524;57.650;11.926;2023-04-16T04:37:37;4.83;;;4.40;;
16813;SDS011;8524;57.650;11.926;2023-04-16T04:40:05;7.50;;;4.83;;
16813;SDS011;8524;57.650;11.926;2023-04-16T04:42:33;4.93;;;4.30;;
16813;SDS011;8524;57.650;11.926;2023-04-16T04:45:00;5.37;;;4.43;;
16813;SDS011;8524;57.650;11.926;2023-04-16T04:47:29;5.17;;;4.67;;
16813;SDS011;8524;57.650;11.926;2023-04-16T04:49:56;4.80;;;4.40;;
16813;SDS011;8524;57.650;11.926;2023-04-16T04:52:23;5.00;;;4.13;;
16813;SDS011;8524;57.650;11.926;2023-04-16T04:54:49;8.63;;;4.50;;
16813;SDS011;8524;57.650;11.926;2023-04-16T04:57:17;5.50;;;4.13;;
16813;SDS011;8524;57.650;11.926;2023-04-16T04:59:44;5.63;;;4.50;;
16813;SDS011;8524;57.650;11.926;2023-04-16T05:02:12;6.30;;;4.80;;
16813;SDS011;8524;57.650;11.926;2023-04-16T05:04:40;4.93;;;4.43;;
16813;SDS011;8524;57.650;11.926;2023-04-16T05:07:08;7.10;;;4.47;;
16813;SDS011;8524;57.650;11.926;2023-04-16T05:09:35;5.60;;;4.30;;
16813;SDS011;8524;57.650;11.926;2023-04-16T05:12:02;5.03;;;4.03;;
16813;SDS011;8524;57.650;11.926;2023-04-16T05:14:29;7.83;;;4.73;;
16813;SDS011;8524;57.650;11.926;2023-04-16T05:16:56;4.90;;;4.40;;
16813;SDS011;8524;57.650;11.926;2023-04-16T05:19:23;5.90;;;4.40;;
16813;SDS011;8524;57.650;11.926;2023-04-16T05:21:52;5.17;;;4.50;;
16813;SDS011;8524;57.650;11.926;2023-04-16T05:24:19;4.80;;;4.40;;
16813;SDS011;8524;57.650;11.926;2023-04-16T05:26:47;4.97;;;4.40;;
16813;SDS011;8524;57.650;11.926;2023-04-16T05:29:14;4.70;;;4.10;;
16813;SDS011;8524;57.650;11.926;2023-04-16T05:31:41;4.70;;;4.30;;
16813;SDS011;8524;57.650;11.926;2023-04-16T05:34:09;6.93;;;4.13;;
16813;SDS011;8524;57.650;11.926;2023-04-16T05:36:36;5.73;;;4.17;;
16813;SDS011;8524;57.650;11.926;2023-04-16T05:39:04;5.77;;;4.70;;
16813;SDS011;8524;57.650;11.926;2023-04-16T05:41:31;6.00;;;4.10;;
16813;SDS011;8524;57.650;11.926;2023-04-16T05:43:58;4.43;;;4.00;;
16813;SDS011;8524;57.650;11.926;2023-04-16T05:46:25;4.90;;;4.40;;
16813;SDS011;8524;57.650;11.926;2023-04-16T05:48:52;4.83;;;4.27;;
16813;SDS011;8524;57.650;11.926;2023-04-16T05:51:20;5.13;;;4.00;;
16813;SDS011;8524;57.650;11.926;2023-04-16T05:53:49;5.07;;;4.37;;
16813;SDS011;8524;57.650;11.926;2023-04-16T05:56:18;4.70;;;4.30;;
16813;SDS011;8524;57.650;11.926;2023-04-16T05:58:46;5.90;;;4.30;;
16813;SDS011;8524;57.650;11.926;2023-04-16T06:01:13;5.77;;;3.80;;
16813;SDS011;8524;57.650;11.926;2023-04-16T06:03:40;5.97;;;4.87;;
16813;SDS011;8524;57.650;11.926;2023-04-16T06:06:07;6.00;;;4.27;;
16813;SDS011;8524;57.650;11.926;2023-04-16T06:08:34;4.30;;;3.90;;
16813;SDS011;8524;57.650;11.926;2023-04-16T06:11:01;4.23;;;3.83;;
16813;SDS011;8524;57.650;11.926;2023-04-16T06:13:29;5.20;;;4.07;;
16813;SDS011;8524;57.650;11.926;2023-04-16T06:15:57;5.20;;;4.20;;
16813;SDS011;8524;57.650;11.926;2023-04-16T06:18:23;4.23;;;3.80;;
16813;SDS011;8524;57.650;11.926;2023-04-16T06:20:50;5.07;;;4.33;;
16813;SDS011;8524;57.650;11.926;2023-04-16T06:23:18;4.10;;;3.67;;
16813;SDS011;8524;57.650;11.926;2023-04-16T06:25:45;4.77;;;3.93;;
16813;SDS011;8524;57.650;11.926;2023-04-16T06:28:12;4.93;;;3.97;;
16813;SDS011;8524;57.650;11.926;2023-04-16T06:30:40;4.37;;;3.97;;
16813;SDS011;8524;57.650;11.926;2023-04-16T06:33:07;5.07;;;4.00;;
16813;SDS011;8524;57.650;11.926;2023-04-16T06:35:34;6.33;;;3.67;;
16813;SDS011;8524;57.650;11.926;2023-04-16T06:38:02;4.37;;;3.93;;
16813;SDS011;8524;57.650;11.926;2023-04-16T06:40:29;4.57;;;3.60;;
16813;SDS011;8524;57.650;11.926;2023-04-16T06:42:56;4.20;;;3.57;;
16813;SDS011;8524;57.650;11.926;2023-04-16T06:45:23;4.50;;;4.07;;
16813;SDS011;8524;57.650;11.926;2023-04-16T06:47:51;6.33;;;3.57;;
16813;SDS011;8524;57.650;11.926;2023-04-16T06:50:18;4.70;;;3.93;;
16813;SDS011;8524;57.650;11.926;2023-04-16T06:52:46;4.93;;;3.80;;
16813;SDS011;8524;57.650;11.926;2023-04-16T06:55:13;4.40;;;4.00;;
16813;SDS011;8524;57.650;11.926;2023-04-16T06:57:40;4.83;;;4.10;;
16813;SDS011;8524;57.650;11.926;2023-04-16T07:00:07;4.63;;;4.03;;
16813;SDS011;8524;57.650;11.926;2023-04-16T07:02:35;4.43;;;4.00;;
16813;SDS011;8524;57.650;11.926;2023-04-16T07:05:04;4.57;;;3.70;;
16813;SDS011;8524;57.650;11.926;2023-04-16T07:07:33;4.83;;;3.77;;
16813;SDS011;8524;57.650;11.926;2023-04-16T07:10:00;4.80;;;3.80;;
16813;SDS011;8524;57.650;11.926;2023-04-16T07:12:27;5.23;;;4.00;;
16813;SDS011;8524;57.650;11.926;2023-04-16T07:14:55;4.27;;;3.87;;
16813;SDS011;8524;57.650;11.926;2023-04-16T07:17:22;4.53;;;4.00;;
16813;SDS011;8524;57.650;11.926;2023-04-16T07:19:50;5.77;;;3.83;;
16813;SDS011;8524;57.650;11.926;2023-04-16T07:22:18;4.17;;;3.67;;
16813;SDS011;8524;57.650;11.926;2023-04-16T07:24:45;4.53;;;4.10;;
16813;SDS011;8524;57.650;11.926;2023-04-16T07:27:12;5.10;;;3.87;;
16813;SDS011;8524;57.650;11.926;2023-04-16T07:29:40;4.17;;;3.63;;
16813;SDS011;8524;57.650;11.926;2023-04-16T07:32:10;6.03;;;3.87;;
16813;SDS011;8524;57.650;11.926;2023-04-16T07:34:37;5.47;;;3.90;;
16813;SDS011;8524;57.650;11.926;2023-04-16T07:37:04;6.57;;;3.60;;
16813;SDS011;8524;57.650;11.926;2023-04-16T07:39:33;5.17;;;3.83;;
16813;SDS011;8524;57.650;11.926;2023-04-16T07:42:00;4.77;;;3.87;;
16813;SDS011;8524;57.650;11.926;2023-04-16T07:44:27;4.27;;;3.77;;
16813;SDS011;8524;57.650;11.926;2023-04-16T07:46:54;5.90;;;3.63;;
16813;SDS011;8524;57.650;11.926;2023-04-16T07:49:21;5.27;;;3.97;;
16813;SDS011;8524;57.650;11.926;2023-04-16T07:51:48;5.43;;;3.90;;
16813;SDS011;8524;57.650;11.926;2023-04-16T07:54:15;5.17;;;3.90;;
16813;SDS011;8524;57.650;11.926;2023-04-16T07:56:44;4.93;;;3.87;;
16813;SDS011;8524;57.650;11.926;2023-04-16T07:59:11;7.23;;;4.30;;
16813;SDS011;8524;57.650;11.926;2023-04-16T08:01:38;4.43;;;3.43;;
16813;SDS011;8524;57.650;11.926;2023-04-16T08:04:05;4.20;;;3.80;;
16813;SDS011;8524;57.650;11.926;2023-04-16T08:06:32;4.43;;;4.00;;
16813;SDS011;8524;57.650;11.926;2023-04-16T08:08:59;4.50;;;3.73;;
16813;SDS011;8524;57.650;11.926;2023-04-16T08:11:26;4.70;;;3.77;;
16813;SDS011;8524;57.650;11.926;2023-04-16T08:13:55;5.10;;;3.97;;
16813;SDS011;8524;57.650;11.926;2023-04-16T08:16:22;4.30;;;3.90;;
16813;SDS011;8524;57.650;11.926;2023-04-16T08:18:49;5.03;;;3.77;;
16813;SDS011;8524;57.650;11.926;2023-04-16T08:21:16;5.30;;;3.70;;
16813;SDS011;8524;57.650;11.926;2023-04-16T08:23:43;6.50;;;4.20;;
16813;SDS011;8524;57.650;11.926;2023-04-16T08:26:10;4.77;;;3.97;;
16813;SDS011;8524;57.650;11.926;2023-04-16T08:28:37;5.23;;;4.20;;
16813;SDS011;8524;57.650;11.926;2023-04-16T08:31:06;5.50;;;3.80;;
16813;SDS011;8524;57.650;11.926;2023-04-16T08:33:33;4.57;;;4.03;;
16813;SDS011;8524;57.650;11.926;2023-04-16T08:36:00;5.00;;;4.30;;
16813;SDS011;8524;57.650;11.926;2023-04-16T08:38:27;6.50;;;4.30;;
16813;SDS011;8524;57.650;11.926;2023-04-16T08:40:54;8.07;;;4.33;;
16813;SDS011;8524;57.650;11.926;2023-04-16T08:43:23;4.97;;;3.80;;
16813;SDS011;8524;57.650;11.926;2023-04-16T08:45:51;5.47;;;4.13;;
16813;SDS011;8524;57.650;11.926;2023-04-16T08:48:23;5.90;;;4.17;;
16813;SDS011;8524;57.650;11.926;2023-04-16T08:50:51;5.20;;;4.13;;
16813;SDS011;8524;57.650;11.926;2023-04-16T08:53:20;6.20;;;4.50;;
16813;SDS011;8524;57.650;11.926;2023-04-16T08:55:49;4.30;;;3.90;;
16813;SDS011;8524;57.650;11.926;2023-04-16T08:58:18;5.30;;;4.20;;
16813;SDS011;8524;57.650;11.926;2023-04-16T09:00:48;6.00;;;4.40;;
16813;SDS011;8524;57.650;11.926;2023-04-16T09:03:15;5.07;;;4.17;;
16813;SDS011;8524;57.650;11.926;2023-04-16T09:05:45;4.73;;;3.90;;
16813;SDS011;8524;57.650;11.926;2023-04-16T09:08:13;6.50;;;4.30;;
16813;SDS011;8524;57.650;11.926;2023-04-16T09:10:40;5.20;;;3.97;;
16813;SDS011;8524;57.650;11.926;2023-04-16T09:13:08;4.93;;;4.17;;
16813;SDS011;8524;57.650;11.926;2023-04-16T09:15:37;5.50;;;4.00;;
16813;SDS011;8524;57.650;11.926;2023-04-16T09:18:06;4.47;;;3.93;;
16813;SDS011;8524;57.650;11.926;2023-04-16T09:20:33;6.30;;;4.60;;
16813;SDS011;8524;57.650;11.926;2023-04-16T09:23:01;5.03;;;3.93;;
16813;SDS011;8524;57.650;11.926;2023-04-16T09:25:31;4.30;;;3.80;;
16813;SDS011;8524;57.650;11.926;2023-04-16T09:27:58;6.03;;;3.73;;
16813;SDS011;8524;57.650;11.926;2023-04-16T09:30:26;4.90;;;4.07;;
16813;SDS011;8524;57.650;11.926;2023-04-16T09:33:12;4.63;;;3.70;;
16813;SDS011;8524;57.650;11.926;2023-04-16T09:35:44;6.37;;;4.37;;
16813;SDS011;8524;57.650;11.926;2023-04-16T09:38:14;4.70;;;4.00;;
16813;SDS011;8524;57.650;11.926;2023-04-16T09:40:41;4.90;;;3.90;;
16813;SDS011;8524;57.650;11.926;2023-04-16T09:43:09;6.07;;;4.30;;
16813;SDS011;8524;57.650;11.926;2023-04-16T09:45:47;4.80;;;4.00;;
16813;SDS011;8524;57.650;11.926;2023-04-16T09:48:14;5.93;;;4.20;;
16813;SDS011;8524;57.650;11.926;2023-04-16T09:50:45;4.40;;;3.77;;
16813;SDS011;8524;57.650;11.926;2023-04-16T09:53:23;4.47;;;3.67;;
16813;SDS011;8524;57.650;11.926;2023-04-16T09:55:51;6.10;;;4.13;;
16813;SDS011;8524;57.650;11.926;2023-04-16T09:58:18;6.83;;;4.20;;
16813;SDS011;8524;57.650;11.926;2023-04-16T10:00:45;5.87;;;4.17;;
16813;SDS011;8524;57.650;11.926;2023-04-16T10:03:12;5.03;;;3.93;;
16813;SDS011;8524;57.650;11.926;2023-04-16T10:05:39;5.73;;;4.13;;
16813;SDS011;8524;57.650;11.926;2023-04-16T10:08:10;4.80;;;3.83;;
16813;SDS011;8524;57.650;11.926;2023-04-16T10:10:39;4.23;;;3.60;;
16813;SDS011;8524;57.650;11.926;2023-04-16T10:13:07;4.53;;;3.80;;
16813;SDS011;8524;57.650;11.926;2023-04-16T10:15:34;4.73;;;3.67;;
16813;SDS011;8524;57.650;11.926;2023-04-16T10:18:02;4.87;;;3.80;;
16813;SDS011;8524;57.650;11.926;2023-04-16T10:20:30;4.43;;;4.03;;
16813;SDS011;8524;57.650;11.926;2023-04-16T10:22:57;6.77;;;3.97;;
16813;SDS011;8524;57.650;11.926;2023-04-16T10:25:25;6.23;;;3.60;;
16813;SDS011;8524;57.650;11.926;2023-04-16T10:27:55;3.57;;;3.23;;
16813;SDS011;8524;57.650;11.926;2023-04-16T10:30:24;4.00;;;3.57;;
16813;SDS011;8524;57.650;11.926;2023-04-16T10:32:52;5.07;;;3.87;;
16813;SDS011;8524;57.650;11.926;2023-04-16T10:35:19;3.80;;;3.50;;
16813;SDS011;8524;57.650;11.926;2023-04-16T10:37:47;5.70;;;3.70;;
16813;SDS011;8524;57.650;11.926;2023-04-16T10:40:22;3.97;;;3.57;;
16813;SDS011;8524;57.650;11.926;2023-04-16T10:42:55;3.70;;;3.13;;
16813;SDS011;8524;57.650;11.926;2023-04-16T10:45:28;4.43;;;4.00;;
16813;SDS011;8524;57.650;11.926;2023-04-16T10:47:56;4.10;;;3.77;;
16813;SDS011;8524;57.650;11.926;2023-04-16T10:50:23;4.13;;;3.50;;
16813;SDS011;8524;57.650;11.926;2023-04-16T10:53:18;4.17;;;3.77;;
16813;SDS011;8524;57.650;11.926;2023-04-16T10:55:57;3.60;;;3.30;;
16813;SDS011;8524;57.650;11.926;2023-04-16T10:58:37;3.93;;;3.33;;
16813;SDS011;8524;57.650;11.926;2023-04-16T11:01:09;4.73;;;3.67;;
16813;SDS011;8524;57.650;11.926;2023-04-16T11:03:45;3.70;;;3.40;;
16813;SDS011;8524;57.650;11.926;2023-04-16T11:06:13;4.73;;;3.97;;
16813;SDS011;8524;57.650;11.926;2023-04-16T11:08:42;4.60;;;3.50;;
16813;SDS011;8524;57.650;11.926;2023-04-16T11:11:10;3.85;;;3.47;;
16813;SDS011;8524;57.650;11.926;2023-04-16T11:13:39;4.63;;;3.03;;
16813;SDS011;8524;57.650;11.926;2023-04-16T11:16:10;4.57;;;3.30;;
16813;SDS011;8524;57.650;11.926;2023-04-16T11:18:38;4.10;;;3.10;;
16813;SDS011;8524;57.650;11.926;2023-04-16T11:21:06;3.83;;;3.27;;
16813;SDS011;8524;57.650;11.926;2023-04-16T11:23:44;3.20;;;2.90;;
16813;SDS011;8524;57.650;11.926;2023-04-16T11:26:19;3.40;;;3.10;;
16813;SDS011;8524;57.650;11.926;2023-04-16T11:28:50;3.53;;;2.80;;
16813;SDS011;8524;57.650;11.926;2023-04-16T11:31:18;4.10;;;3.00;;
16813;SDS011;8524;57.650;11.926;2023-04-16T11:33:45;3.40;;;3.10;;
16813;SDS011;8524;57.650;11.926;2023-04-16T11:36:12;3.67;;;3.37;;
16813;SDS011;8524;57.650;11.926;2023-04-16T11:38:40;4.57;;;3.33;;
16813;SDS011;8524;57.650;11.926;2023-04-16T11:41:07;3.63;;;2.87;;
16813;SDS011;8524;57.650;11.926;2023-04-16T11:43:34;5.77;;;3.80;;
16813;SDS011;8524;57.650;11.926;2023-04-16T11:46:03;3.87;;;3.00;;
16813;SDS011;8524;57.650;11.926;2023-04-16T11:48:47;3.67;;;3.10;;
16813;SDS011;8524;57.650;11.926;2023-04-16T11:51:15;4.30;;;3.07;;
16813;SDS011;8524;57.650;11.926;2023-04-16T11:53:47;4.70;;;3.20;;
16813;SDS011;8524;57.650;11.926;2023-04-16T11:56:15;5.10;;;2.87;;
16813;SDS011;8524;57.650;11.926;2023-04-16T11:59:04;7.30;;;3.20;;
16813;SDS011;8524;57.650;11.926;2023-04-16T12:01:35;3.57;;;2.90;;
16813;SDS011;8524;57.650;11.926;2023-04-16T12:04:03;2.77;;;2.57;;
16813;SDS011;8524;57.650;11.926;2023-04-16T12:06:30;3.30;;;3.00;;
16813;SDS011;8524;57.650;11.926;2023-04-16T12:08:57;4.30;;;2.77;;
16813;SDS011;8524;57.650;11.926;2023-04-16T12:11:37;3.70;;;2.63;;
16813;SDS011;8524;57.650;11.926;2023-04-16T12:14:08;5.27;;;3.37;;
16813;SDS011;8524;57.650;11.926;2023-04-16T12:16:37;3.83;;;2.67;;
16813;SDS011;8524;57.650;11.926;2023-04-16T12:19:04;3.20;;;2.70;;
16813;SDS011;8524;57.650;11.926;2023-04-16T12:21:35;3.67;;;2.80;;
16813;SDS011;8524;57.650;11.926;2023-04-16T12:24:03;3.20;;;2.60;;
16813;SDS011;8524;57.650;11.926;2023-04-16T12:26:37;6.63;;;2.80;;
16813;SDS011;8524;57.650;11.926;2023-04-16T12:29:18;4.00;;;3.07;;
16813;SDS011;8524;57.650;11.926;2023-04-16T12:31:48;3.40;;;2.78;;
16813;SDS011;8524;57.650;11.926;2023-04-16T12:34:16;3.03;;;2.73;;
16813;SDS011;8524;57.650;11.926;2023-04-16T12:36:44;3.13;;;2.67;;
16813;SDS011;8524;57.650;11.926;2023-04-16T12:39:12;3.90;;;2.87;;
16813;SDS011;8524;57.650;11.926;2023-04-16T12:41:41;3.27;;;2.63;;
16813;SDS011;8524;57.650;11.926;2023-04-16T12:44:09;2.77;;;2.57;;
16813;SDS011;8524;57.650;11.926;2023-04-16T12:46:38;3.13;;;2.60;;
16813;SDS011;8524;57.650;11.926;2023-04-16T12:49:07;3.50;;;2.47;;
16813;SDS011;8524;57.650;11.926;2023-04-16T12:51:36;2.87;;;2.50;;
16813;SDS011;8524;57.650;11.926;2023-04-16T12:54:04;5.70;;;3.13;;
16813;SDS011;8524;57.650;11.926;2023-04-16T12:56:32;3.57;;;2.43;;
16813;SDS011;8524;57.650;11.926;2023-04-16T12:59:00;3.43;;;2.60;;
16813;SDS011;8524;57.650;11.926;2023-04-16T13:01:27;3.43;;;2.80;;
16813;SDS011;8524;57.650;11.926;2023-04-16T13:03:54;2.70;;;2.50;;
16813;SDS011;8524;57.650;11.926;2023-04-16T13:06:23;5.30;;;2.83;;
16813;SDS011;8524;57.650;11.926;2023-04-16T13:08:50;3.67;;;2.50;;
16813;SDS011;8524;57.650;11.926;2023-04-16T13:11:17;3.67;;;2.50;;
16813;SDS011;8524;57.650;11.926;2023-04-16T13:13:44;3.10;;;2.50;;
16813;SDS011;8524;57.650;11.926;2023-04-16T13:16:11;3.37;;;2.50;;
16813;SDS011;8524;57.650;11.926;2023-04-16T13:18:38;3.33;;;2.30;;
16813;SDS011;8524;57.650;11.926;2023-04-16T13:21:05;3.43;;;2.80;;
16813;SDS011;8524;57.650;11.926;2023-04-16T13:23:34;2.87;;;2.57;;
16813;SDS011;8524;57.650;11.926;2023-04-16T13:26:02;2.40;;;2.20;;
16813;SDS011;8524;57.650;11.926;2023-04-16T13:28:28;4.60;;;2.50;;
16813;SDS011;8524;57.650;11.926;2023-04-16T13:30:56;2.67;;;2.37;;
16813;SDS011;8524;57.650;11.926;2023-04-16T13:33:23;3.00;;;2.60;;
16813;SDS011;8524;57.650;11.926;2023-04-16T13:35:50;3.87;;;2.80;;
16813;SDS011;8524;57.650;11.926;2023-04-16T13:38:17;3.10;;;2.30;;
16813;SDS011;8524;57.650;11.926;2023-04-16T13:40:46;3.37;;;2.27;;
16813;SDS011;8524;57.650;11.926;2023-04-16T13:43:13;3.03;;;2.20;;
16813;SDS011;8524;57.650;11.926;2023-04-16T13:45:42;2.80;;;2.43;;
16813;SDS011;8524;57.650;11.926;2023-04-16T13:48:10;3.47;;;2.40;;
16813;SDS011;8524;57.650;11.926;2023-04-16T13:50:37;2.80;;;2.27;;
16813;SDS011;8524;57.650;11.926;2023-04-16T13:53:04;2.67;;;2.30;;
16813;SDS011;8524;57.650;11.926;2023-04-16T13:55:31;2.80;;;2.37;;
16813;SDS011;8524;57.650;11.926;2023-04-16T13:57:59;3.47;;;2.17;;
16813;SDS011;8524;57.650;11.926;2023-04-16T14:00:26;3.27;;;2.40;;
16813;SDS011;8524;57.650;11.926;2023-04-16T14:02:53;4.87;;;2.80;;
16813;SDS011;8524;57.650;11.926;2023-04-16T14:05:20;3.90;;;2.23;;
16813;SDS011;8524;57.650;11.926;2023-04-16T14:07:48;3.63;;;2.43;;
16813;SDS011;8524;57.650;11.926;2023-04-16T14:10:16;2.47;;;2.27;;
16813;SDS011;8524;57.650;11.926;2023-04-16T14:12:43;12.20;;;3.92;;
16813;SDS011;8524;57.650;11.926;2023-04-16T14:15:12;3.30;;;2.40;;
16813;SDS011;8524;57.650;11.926;2023-04-16T14:17:40;3.33;;;2.50;;
16813;SDS011;8524;57.650;11.926;2023-04-16T14:20:08;2.90;;;2.10;;
16813;SDS011;8524;57.650;11.926;2023-04-16T14:22:36;3.10;;;2.70;;
16813;SDS011;8524;57.650;11.926;2023-04-16T14:25:03;4.17;;;2.30;;
16813;SDS011;8524;57.650;11.926;2023-04-16T14:27:31;3.00;;;2.45;;
16813;SDS011;8524;57.650;11.926;2023-04-16T14:29:59;4.27;;;2.40;;
16813;SDS011;8524;57.650;11.926;2023-04-16T14:32:28;3.43;;;2.20;;
16813;SDS011;8524;57.650;11.926;2023-04-16T14:34:55;3.63;;;2.80;;
16813;SDS011;8524;57.650;11.926;2023-04-16T14:37:22;3.47;;;2.30;;
16813;SDS011;8524;57.650;11.926;2023-04-16T14:39:50;5.83;;;2.23;;
16813;SDS011;8524;57.650;11.926;2023-04-16T14:42:18;2.70;;;2.40;;
16813;SDS011;8524;57.650;11.926;2023-04-16T14:44:46;2.78;;;2.47;;
16813;SDS011;8524;57.650;11.926;2023-04-16T14:47:13;2.53;;;2.33;;
16813;SDS011;8524;57.650;11.926;2023-04-16T14:49:41;2.80;;;2.20;;
16813;SDS011;8524;57.650;11.926;2023-04-16T14:52:09;2.60;;;2.40;;
16813;SDS011;8524;57.650;11.926;2023-04-16T14:54:36;3.03;;;2.30;;